createdAt,value
2017-11-19T00:00:06.305Z,2.17
2017-11-19T00:02:37.164Z,2.07
2017-11-19T00:05:08.044Z,2.50
2017-11-19T00:07:38.914Z,2.07
2017-11-19T00:10:09.757Z,2.07
2017-11-19T00:12:40.654Z,2.60
2017-11-19T00:15:11.538Z,1.70
2017-11-19T00:17:42.380Z,2.40
2017-11-19T00:20:13.262Z,2.13
2017-11-19T00:22:44.138Z,2.07
2017-11-19T00:25:15.009Z,2.17
2017-11-19T00:27:45.862Z,1.90
2017-11-19T00:30:16.713Z,2.47
2017-11-19T00:32:47.573Z,2.50
2017-11-19T00:35:18.433Z,1.90
2017-11-19T00:37:49.301Z,1.73
2017-11-19T00:40:20.166Z,2.30
2017-11-19T00:42:51.054Z,1.80
2017-11-19T00:45:21.901Z,1.50
2017-11-19T00:47:52.781Z,1.77
2017-11-19T00:50:23.632Z,1.87
2017-11-19T00:52:54.495Z,1.80
2017-11-19T00:55:25.358Z,2.10
2017-11-19T00:57:56.244Z,1.90
2017-11-19T01:00:27.105Z,1.73
2017-11-19T01:02:57.981Z,1.73
2017-11-19T01:05:28.836Z,1.40
2017-11-19T01:07:59.853Z,1.80
2017-11-19T01:10:30.690Z,1.70
2017-11-19T01:13:01.567Z,1.70
2017-11-19T01:15:32.412Z,2.07
2017-11-19T01:18:03.261Z,1.77
2017-11-19T01:20:34.131Z,1.60
2017-11-19T01:23:05.091Z,1.70
2017-11-19T01:25:35.904Z,1.77
2017-11-19T01:28:06.764Z,1.50
2017-11-19T01:30:37.633Z,1.80
2017-11-19T01:33:08.480Z,1.80
2017-11-19T01:35:39.333Z,2.00
2017-11-19T01:38:10.191Z,2.00
2017-11-19T01:40:41.065Z,1.73
2017-11-19T01:43:11.913Z,2.10
2017-11-19T01:45:42.784Z,2.00
2017-11-19T01:48:13.655Z,1.40
2017-11-19T01:50:44.511Z,1.63
2017-11-19T01:53:15.358Z,1.53
2017-11-19T01:55:46.213Z,2.03
2017-11-19T01:58:17.439Z,1.40
2017-11-19T02:00:48.277Z,1.80
2017-11-19T02:03:19.153Z,1.40
2017-11-19T02:05:50.024Z,1.50
2017-11-19T02:08:20.879Z,1.53
2017-11-19T02:10:51.753Z,1.40
2017-11-19T02:13:22.627Z,1.50
2017-11-19T02:15:53.473Z,1.40
2017-11-19T02:18:24.341Z,1.80
2017-11-19T02:20:55.189Z,1.60
2017-11-19T02:23:26.053Z,2.33
2017-11-19T02:25:56.923Z,1.33
2017-11-19T02:28:27.776Z,1.70
2017-11-19T02:30:58.629Z,1.67
2017-11-19T02:33:29.492Z,1.70
2017-11-19T02:36:00.343Z,1.43
2017-11-19T02:38:31.183Z,1.80
2017-11-19T02:41:02.082Z,1.40
2017-11-19T02:43:32.918Z,1.77
2017-11-19T02:46:03.774Z,1.47
2017-11-19T02:48:34.650Z,1.40
2017-11-19T02:51:05.514Z,1.30
2017-11-19T02:53:36.374Z,1.37
2017-11-19T02:56:07.205Z,1.70
2017-11-19T02:58:38.073Z,1.20
2017-11-19T03:01:08.913Z,1.20
2017-11-19T03:03:39.793Z,1.23
2017-11-19T03:06:10.744Z,1.37
2017-11-19T03:08:41.597Z,1.73
2017-11-19T03:11:12.451Z,1.37
2017-11-19T03:13:43.334Z,1.10
2017-11-19T03:16:14.188Z,1.17
2017-11-19T03:18:45.033Z,1.63
2017-11-19T03:21:15.893Z,1.50
2017-11-19T03:23:46.720Z,1.30
2017-11-19T03:26:17.569Z,1.40
2017-11-19T03:28:48.429Z,1.73
2017-11-19T03:31:19.305Z,1.47
2017-11-19T03:33:50.155Z,1.37
2017-11-19T03:36:21.009Z,1.20
2017-11-19T03:38:51.868Z,1.30
2017-11-19T03:41:22.745Z,1.50
2017-11-19T03:43:53.603Z,0.90
2017-11-19T03:46:24.454Z,1.37
2017-11-19T03:48:55.296Z,1.43
2017-11-19T03:51:26.141Z,1.30
2017-11-19T03:53:57.022Z,1.50
2017-11-19T03:56:27.852Z,1.13
2017-11-19T03:58:58.689Z,2.00
2017-11-19T04:01:29.581Z,1.20
2017-11-19T04:04:00.464Z,1.17
2017-11-19T04:06:31.325Z,1.07
2017-11-19T04:09:02.181Z,1.50
2017-11-19T04:11:33.045Z,1.13
2017-11-19T04:14:03.897Z,1.03
2017-11-19T04:16:34.772Z,1.23
2017-11-19T04:19:05.613Z,1.20
2017-11-19T04:21:36.584Z,0.93
2017-11-19T04:24:07.395Z,1.50
2017-11-19T04:26:38.241Z,1.33
2017-11-19T04:29:09.097Z,0.90
2017-11-19T04:31:39.964Z,1.10
2017-11-19T04:34:10.804Z,1.17
2017-11-19T04:36:41.664Z,1.63
2017-11-19T04:39:12.505Z,0.90
2017-11-19T04:41:43.360Z,1.40
2017-11-19T04:44:14.204Z,1.43
2017-11-19T04:46:45.071Z,0.70
2017-11-19T04:49:15.936Z,1.17
2017-11-19T04:51:46.795Z,1.33
2017-11-19T04:54:17.661Z,1.10
2017-11-19T04:56:48.501Z,1.03
2017-11-19T04:59:19.368Z,1.07
2017-11-19T05:01:50.225Z,1.03
2017-11-19T05:04:21.097Z,1.10
2017-11-19T05:06:51.942Z,1.40
2017-11-19T05:09:22.898Z,1.10
2017-11-19T05:11:53.728Z,1.30
2017-11-19T05:14:24.573Z,1.10
2017-11-19T05:16:55.460Z,1.10
2017-11-19T05:19:26.328Z,1.63
2017-11-19T05:21:57.205Z,1.10
2017-11-19T05:24:28.061Z,1.37
2017-11-19T05:26:58.909Z,0.97
2017-11-19T05:29:29.745Z,1.57
2017-11-19T05:32:00.627Z,1.07
2017-11-19T05:34:31.465Z,1.23
2017-11-19T05:37:02.329Z,1.17
2017-11-19T05:39:33.198Z,0.90
2017-11-19T05:42:04.048Z,1.27
2017-11-19T05:44:34.881Z,1.20
2017-11-19T05:47:05.749Z,1.37
2017-11-19T05:49:36.604Z,0.80
2017-11-19T05:52:07.445Z,1.10
2017-11-19T05:54:38.328Z,0.90
2017-11-19T05:57:09.171Z,1.00
2017-11-19T05:59:40.032Z,1.07
2017-11-19T06:02:10.874Z,0.87
2017-11-19T06:04:41.761Z,1.17
2017-11-19T06:07:12.602Z,1.07
2017-11-19T06:09:43.458Z,1.27
2017-11-19T06:12:14.309Z,0.90
2017-11-19T06:14:45.158Z,1.17
2017-11-19T06:17:16.557Z,0.87
2017-11-19T06:19:47.413Z,0.93
2017-11-19T06:22:18.261Z,0.90
2017-11-19T06:24:49.122Z,0.90
2017-11-19T06:27:19.964Z,0.87
2017-11-19T06:29:50.818Z,1.00
2017-11-19T06:32:21.686Z,1.00
2017-11-19T06:34:52.583Z,0.77
2017-11-19T06:37:23.426Z,0.80
2017-11-19T06:39:54.301Z,0.80
2017-11-19T06:42:25.147Z,0.80
2017-11-19T06:44:55.995Z,0.77
2017-11-19T06:47:26.891Z,0.80
2017-11-19T06:49:57.724Z,0.80
2017-11-19T06:52:28.602Z,1.00
2017-11-19T06:54:59.437Z,0.70
2017-11-19T06:57:30.322Z,0.90
2017-11-19T07:00:01.184Z,1.20
2017-11-19T07:02:32.069Z,0.97
2017-11-19T07:05:02.934Z,1.00
2017-11-19T07:07:33.804Z,0.83
2017-11-19T07:10:04.655Z,0.93
2017-11-19T07:12:35.515Z,1.00
2017-11-19T07:15:06.360Z,0.73
2017-11-19T07:17:37.210Z,0.80
2017-11-19T07:20:08.080Z,1.10
2017-11-19T07:22:38.923Z,1.07
2017-11-19T07:25:09.807Z,0.80
2017-11-19T07:27:40.644Z,1.00
2017-11-19T07:30:11.496Z,0.73
2017-11-19T07:32:42.329Z,0.70
2017-11-19T07:35:13.193Z,1.10
2017-11-19T07:37:44.098Z,0.80
2017-11-19T07:40:14.949Z,1.00
2017-11-19T07:42:45.806Z,1.00
2017-11-19T07:45:16.665Z,0.63
2017-11-19T07:47:47.504Z,0.73
2017-11-19T07:50:18.349Z,0.97
2017-11-19T07:52:49.220Z,0.90
2017-11-19T07:55:20.058Z,0.90
2017-11-19T07:57:50.915Z,0.90
2017-11-19T08:00:21.765Z,1.03
2017-11-19T08:02:52.616Z,0.73
2017-11-19T08:05:23.456Z,0.90
2017-11-19T08:07:54.332Z,0.90
2017-11-19T08:10:25.196Z,0.83
2017-11-19T08:12:56.099Z,0.70
2017-11-19T08:15:26.932Z,1.00
2017-11-19T08:17:57.818Z,0.93
2017-11-19T08:20:28.647Z,1.10
2017-11-19T08:22:59.504Z,0.73
2017-11-19T08:25:30.372Z,0.87
2017-11-19T08:28:01.238Z,0.60
2017-11-19T08:30:32.100Z,1.00
2017-11-19T08:33:02.964Z,0.83
2017-11-19T08:35:33.857Z,0.93
2017-11-19T08:38:04.685Z,0.50
2017-11-19T08:40:35.546Z,0.57
2017-11-19T08:43:06.400Z,0.80
2017-11-19T08:45:37.266Z,0.80
2017-11-19T08:48:08.129Z,1.00
2017-11-19T08:50:39.004Z,0.83
2017-11-19T08:53:09.861Z,0.80
2017-11-19T08:55:40.750Z,0.77
2017-11-19T08:58:11.591Z,0.90
2017-11-19T09:00:42.478Z,0.90
2017-11-19T09:03:13.312Z,0.50
2017-11-19T09:05:44.249Z,0.80
2017-11-19T09:08:15.151Z,0.83
2017-11-19T09:10:45.985Z,0.77
2017-11-19T09:13:16.865Z,0.70
2017-11-19T09:15:47.720Z,0.73
2017-11-19T09:18:18.609Z,0.83
2017-11-19T09:20:49.469Z,1.10
2017-11-19T09:23:20.343Z,0.80
2017-11-19T09:25:51.219Z,0.63
2017-11-19T09:28:22.120Z,0.70
2017-11-19T09:30:52.967Z,0.83
2017-11-19T09:33:24.134Z,0.80
2017-11-19T09:35:54.981Z,0.85
2017-11-19T09:38:25.818Z,0.73
2017-11-19T09:40:56.709Z,0.70
2017-11-19T09:43:27.572Z,0.63
2017-11-19T09:45:58.458Z,0.77
2017-11-19T09:48:29.282Z,0.80
2017-11-19T09:51:00.139Z,0.60
2017-11-19T09:53:30.990Z,0.80
2017-11-19T09:56:01.877Z,0.70
2017-11-19T09:58:32.712Z,0.70
2017-11-19T10:01:03.590Z,1.00
2017-11-19T10:03:34.476Z,0.80
2017-11-19T10:06:05.341Z,0.90
2017-11-19T10:08:36.274Z,0.67
2017-11-19T10:11:07.132Z,0.50
2017-11-19T10:13:38.018Z,0.80
2017-11-19T10:16:08.901Z,0.90
2017-11-19T10:18:39.736Z,0.80
2017-11-19T10:21:10.594Z,0.97
2017-11-19T10:23:41.463Z,0.80
2017-11-19T10:26:12.336Z,1.63
2017-11-19T10:28:43.190Z,0.70
2017-11-19T10:31:14.088Z,0.90
2017-11-19T10:33:44.947Z,1.10
2017-11-19T10:36:15.828Z,1.27
2017-11-19T10:38:46.733Z,1.30
2017-11-19T10:41:17.595Z,1.50
2017-11-19T10:43:48.439Z,1.60
2017-11-19T10:46:19.332Z,1.50
2017-11-19T10:48:50.181Z,2.30
2017-11-19T10:51:21.051Z,2.27
2017-11-19T10:53:51.915Z,3.27
2017-11-19T10:56:22.777Z,1.50
2017-11-19T10:58:53.641Z,1.03
2017-11-19T11:01:24.508Z,0.80
2017-11-19T11:03:55.361Z,0.70
2017-11-19T11:06:26.258Z,0.80
2017-11-19T11:08:57.096Z,0.60
2017-11-19T11:11:27.971Z,0.60
2017-11-19T11:13:58.835Z,0.70
2017-11-19T11:16:29.693Z,0.87
2017-11-19T11:19:00.667Z,0.50
2017-11-19T11:21:31.524Z,0.63
2017-11-19T11:24:02.393Z,0.47
2017-11-19T11:26:33.268Z,0.43
2017-11-19T11:29:04.128Z,0.77
2017-11-19T11:31:35.030Z,0.90
2017-11-19T11:34:05.899Z,1.10
2017-11-19T11:36:36.784Z,1.13
2017-11-19T11:39:07.632Z,0.90
2017-11-19T11:41:38.502Z,0.57
2017-11-19T11:44:09.487Z,0.80
2017-11-19T11:46:40.467Z,0.70
2017-11-19T11:49:11.930Z,0.90
2017-11-19T11:51:42.782Z,0.65
2017-11-19T11:54:13.692Z,0.90
2017-11-19T11:56:44.549Z,0.83
2017-11-19T11:59:15.598Z,0.90
2017-11-19T12:01:46.539Z,0.55
2017-11-19T12:04:17.391Z,0.80
2017-11-19T12:06:48.822Z,0.50
2017-11-19T12:09:19.686Z,8.63
2017-11-19T12:11:50.545Z,6.43
2017-11-19T12:14:21.642Z,6.57
2017-11-19T12:16:52.487Z,5.68
2017-11-19T12:19:23.354Z,5.77
2017-11-19T12:21:54.210Z,4.97
2017-11-19T12:24:25.070Z,4.73
2017-11-19T12:26:55.974Z,5.33
2017-11-19T12:29:26.813Z,3.97
2017-11-19T12:31:57.677Z,4.83
2017-11-19T12:34:28.647Z,4.90
2017-11-19T12:36:59.749Z,4.10
2017-11-19T12:39:30.593Z,4.12
2017-11-19T12:42:01.446Z,4.00
2017-11-19T12:44:32.300Z,4.30
2017-11-19T12:47:03.161Z,4.07
2017-11-19T12:49:34.035Z,3.93
2017-11-19T12:52:04.915Z,3.90
2017-11-19T12:54:35.798Z,3.83
2017-11-19T12:57:06.669Z,3.57
2017-11-19T12:59:37.562Z,2.93
2017-11-19T13:02:08.430Z,3.37
2017-11-19T13:04:39.286Z,3.53
2017-11-19T13:07:10.150Z,2.90
2017-11-19T13:09:41.003Z,3.20
2017-11-19T13:12:11.874Z,2.67
2017-11-19T13:14:42.759Z,2.77
2017-11-19T13:17:13.617Z,2.77
2017-11-19T13:19:44.498Z,3.13
2017-11-19T13:22:15.359Z,2.80
2017-11-19T13:24:46.221Z,3.23
2017-11-19T13:27:17.105Z,3.40
2017-11-19T13:29:47.996Z,2.60
2017-11-19T13:32:18.864Z,2.90
2017-11-19T13:34:49.741Z,2.70
2017-11-19T13:37:20.594Z,3.00
2017-11-19T13:39:51.496Z,2.80
2017-11-19T13:42:22.380Z,3.23
2017-11-19T13:44:53.231Z,2.90
2017-11-19T13:47:24.095Z,2.83
2017-11-19T13:49:54.979Z,3.10
2017-11-19T13:52:25.852Z,2.60
2017-11-19T13:54:56.722Z,2.47
2017-11-19T13:57:27.617Z,2.80
2017-11-19T13:59:58.472Z,2.53
2017-11-19T14:02:29.364Z,2.47
2017-11-19T14:05:01.662Z,2.10
2017-11-19T14:07:32.550Z,2.12
2017-11-19T14:10:03.404Z,2.20
2017-11-19T14:12:34.345Z,2.33
2017-11-19T14:15:05.212Z,2.20
2017-11-19T14:17:36.091Z,1.67
2017-11-19T14:20:06.957Z,1.90
2017-11-19T14:22:37.816Z,2.10
2017-11-19T14:25:08.711Z,2.00
2017-11-19T14:27:39.562Z,1.87
2017-11-19T14:30:10.450Z,2.20
2017-11-19T14:32:41.349Z,1.80
2017-11-19T14:35:12.313Z,1.83
2017-11-19T14:37:43.158Z,2.07
2017-11-19T14:40:14.028Z,1.50
2017-11-19T14:42:44.924Z,1.70
2017-11-19T14:45:15.855Z,1.60
2017-11-19T14:47:46.716Z,1.70
2017-11-19T14:50:17.618Z,1.80
2017-11-19T14:52:48.490Z,2.47
2017-11-19T14:55:19.380Z,3.70
2017-11-19T14:57:50.270Z,5.40
2017-11-19T15:00:21.138Z,4.63
2017-11-19T15:02:52.038Z,3.70
2017-11-19T15:05:22.894Z,3.93
2017-11-19T15:07:53.769Z,3.57
2017-11-19T15:10:24.626Z,3.43
2017-11-19T15:12:55.536Z,3.90
2017-11-19T15:15:26.408Z,2.73
2017-11-19T15:17:57.285Z,2.87
2017-11-19T15:20:29.193Z,2.90
2017-11-19T15:23:00.031Z,2.33
2017-11-19T15:25:31.207Z,2.53
2017-11-19T15:28:02.105Z,2.00
2017-11-19T15:30:32.997Z,2.10
2017-11-19T15:33:03.876Z,2.90
2017-11-19T15:35:34.919Z,3.33
2017-11-19T15:38:05.901Z,2.75
2017-11-19T15:40:36.814Z,2.73
2017-11-19T15:43:08.194Z,2.50
2017-11-19T15:45:39.242Z,2.53
2017-11-19T15:48:10.171Z,2.20
2017-11-19T15:50:41.549Z,2.10
2017-11-19T15:53:13.383Z,2.42
2017-11-19T15:55:44.425Z,2.65
2017-11-19T15:58:15.367Z,3.22
2017-11-19T16:00:46.542Z,2.08
2017-11-19T16:03:17.991Z,2.05
2017-11-19T16:05:48.933Z,2.27
2017-11-19T16:08:20.965Z,1.47
2017-11-19T16:10:52.056Z,2.20
2017-11-19T16:13:23.048Z,1.30
2017-11-19T16:15:54.103Z,1.50
2017-11-19T16:18:25.063Z,1.40
2017-11-19T16:20:56.074Z,1.57
2017-11-19T16:23:26.980Z,1.40
2017-11-19T16:25:57.855Z,1.57
2017-11-19T16:28:28.850Z,0.70
2017-11-19T16:31:00.860Z,1.17
2017-11-19T16:33:32.102Z,1.02
2017-11-19T16:36:03.861Z,1.00
2017-11-19T16:38:37.778Z,1.25
2017-11-19T16:41:09.321Z,1.30
2017-11-19T16:43:40.377Z,1.35
2017-11-19T16:46:11.614Z,1.35
2017-11-19T16:48:42.753Z,1.45
2017-11-19T16:51:14.000Z,1.40
2017-11-19T16:53:45.452Z,1.70
2017-11-19T16:56:16.878Z,1.62
2017-11-19T16:58:50.520Z,1.35
2017-11-19T17:01:21.853Z,1.00
2017-11-19T17:03:52.751Z,1.70
2017-11-19T17:06:23.691Z,1.73
2017-11-19T17:08:54.585Z,1.30
2017-11-19T17:11:25.500Z,1.90
2017-11-19T17:13:57.132Z,1.97
2017-11-19T17:16:28.017Z,1.70
2017-11-19T17:18:58.878Z,1.70
2017-11-19T17:21:29.779Z,1.87
2017-11-19T17:24:00.646Z,1.60
2017-11-19T17:26:31.561Z,1.70
2017-11-19T17:29:02.447Z,1.17
2017-11-19T17:31:33.336Z,1.30
2017-11-19T17:34:04.216Z,1.43
2017-11-19T17:36:35.113Z,1.90
2017-11-19T17:39:06.004Z,1.33
2017-11-19T17:41:36.927Z,1.60
2017-11-19T17:44:07.814Z,1.93
2017-11-19T17:46:38.696Z,1.63
2017-11-19T17:49:09.632Z,1.40
2017-11-19T17:51:40.513Z,1.10
2017-11-19T17:54:11.400Z,1.33
2017-11-19T17:56:42.274Z,1.33
2017-11-19T17:59:13.147Z,1.50
2017-11-19T18:01:44.016Z,1.40
2017-11-19T18:04:14.889Z,1.43
2017-11-19T18:06:45.768Z,1.43
2017-11-19T18:09:16.631Z,1.43
2017-11-19T18:11:47.501Z,1.37
2017-11-19T18:14:18.386Z,1.40
2017-11-19T18:16:49.311Z,1.47
2017-11-19T18:19:20.198Z,1.40
2017-11-19T18:21:51.072Z,1.60
2017-11-19T18:24:22.022Z,1.80
2017-11-19T18:26:52.901Z,1.77
2017-11-19T18:29:23.805Z,1.43
2017-11-19T18:31:54.701Z,1.50
2017-11-19T18:34:25.549Z,9.17
2017-11-19T18:36:56.443Z,24.87
2017-11-19T18:39:27.320Z,21.67
2017-11-19T18:41:58.192Z,21.80
2017-11-19T18:44:29.055Z,20.30
2017-11-19T18:46:59.933Z,17.13
2017-11-19T18:49:30.806Z,16.60
2017-11-19T18:52:01.673Z,13.80
2017-11-19T18:54:32.571Z,12.10
2017-11-19T18:57:03.424Z,13.13
2017-11-19T18:59:34.303Z,11.53
2017-11-19T19:02:05.168Z,10.37
2017-11-19T19:04:36.034Z,9.70
2017-11-19T19:07:06.922Z,8.40
2017-11-19T19:09:37.797Z,8.40
2017-11-19T19:12:08.649Z,8.00
2017-11-19T19:14:39.526Z,6.10
2017-11-19T19:17:10.402Z,6.20
2017-11-19T19:19:41.274Z,5.50
2017-11-19T19:22:12.176Z,5.03
2017-11-19T19:24:43.063Z,5.90
2017-11-19T19:27:13.944Z,5.20
2017-11-19T19:29:44.816Z,4.50
2017-11-19T19:32:15.704Z,4.73
2017-11-19T19:34:46.691Z,4.70
2017-11-19T19:37:17.597Z,3.93
2017-11-19T19:39:48.453Z,3.07
2017-11-19T19:42:19.358Z,3.57
2017-11-19T19:44:50.233Z,3.70
2017-11-19T19:47:21.097Z,3.80
2017-11-19T19:49:52.000Z,3.67
2017-11-19T19:52:22.864Z,2.50
2017-11-19T19:54:53.747Z,2.77
2017-11-19T19:57:24.631Z,2.20
2017-11-19T19:59:55.530Z,2.23
2017-11-19T20:05:13.347Z,1.85
2017-11-19T20:07:44.225Z,2.30
2017-11-19T20:10:15.136Z,2.50
2017-11-19T20:12:45.980Z,2.60
2017-11-19T20:15:16.879Z,1.83
2017-11-19T20:17:47.828Z,1.70
2017-11-19T20:20:18.719Z,1.33
2017-11-19T20:22:49.598Z,1.10
2017-11-19T20:25:20.483Z,1.70
2017-11-19T20:27:51.349Z,1.73
2017-11-19T20:30:22.281Z,1.90
2017-11-19T20:32:53.160Z,1.93
2017-11-19T20:35:24.011Z,2.23
2017-11-19T20:37:55.143Z,1.73
2017-11-19T20:40:26.012Z,1.52
2017-11-19T20:42:56.921Z,1.33
2017-11-19T20:45:27.851Z,1.43
2017-11-19T20:47:58.704Z,1.50
2017-11-19T20:50:29.596Z,1.40
2017-11-19T20:53:00.521Z,1.93
2017-11-19T20:55:31.375Z,1.73
2017-11-19T20:58:02.235Z,1.60
2017-11-19T21:00:33.122Z,1.50
2017-11-19T21:03:04.005Z,1.77
2017-11-19T21:05:34.895Z,1.50
2017-11-19T21:08:05.749Z,1.03
2017-11-19T21:10:36.647Z,1.43
2017-11-19T21:13:07.575Z,1.57
2017-11-19T21:15:38.514Z,1.40
2017-11-19T21:18:09.411Z,1.40
2017-11-19T21:20:40.288Z,1.20
2017-11-19T21:23:11.181Z,1.53
2017-11-19T21:25:42.056Z,1.33
2017-11-19T21:28:12.940Z,1.53
2017-11-19T21:30:43.808Z,0.97
2017-11-19T21:33:14.670Z,1.50
2017-11-19T21:35:45.564Z,1.50
2017-11-19T21:38:16.413Z,1.80
2017-11-19T21:40:47.286Z,1.40
2017-11-19T21:43:18.178Z,1.73
2017-11-19T21:45:49.075Z,1.10
2017-11-19T21:48:19.949Z,1.20
2017-11-19T21:50:50.816Z,1.70
2017-11-19T21:53:21.676Z,1.23
2017-11-19T21:55:52.554Z,1.33
2017-11-19T21:58:23.416Z,1.03
2017-11-19T22:00:54.284Z,1.60
2017-11-19T22:03:25.159Z,1.10
2017-11-19T22:05:56.055Z,1.13
2017-11-19T22:08:26.924Z,1.43
2017-11-19T22:10:57.778Z,1.27
2017-11-19T22:13:28.661Z,1.70
2017-11-19T22:15:59.564Z,1.17
2017-11-19T22:18:30.481Z,1.10
2017-11-19T22:21:01.297Z,1.27
2017-11-19T22:23:32.206Z,0.90
2017-11-19T22:26:03.045Z,1.20
2017-11-19T22:28:34.021Z,1.40
2017-11-19T22:31:04.894Z,0.90
2017-11-19T22:33:35.761Z,1.57
2017-11-19T22:36:06.625Z,1.00
2017-11-19T22:38:37.569Z,1.27
2017-11-19T22:41:09.664Z,1.23
2017-11-19T22:43:40.551Z,1.10
2017-11-19T22:46:11.416Z,1.17
2017-11-19T22:48:42.282Z,1.13
2017-11-19T22:51:13.148Z,1.13
2017-11-19T22:53:44.013Z,0.93
2017-11-19T22:56:14.862Z,1.13
2017-11-19T22:58:45.722Z,1.10
2017-11-19T23:01:16.584Z,1.20
2017-11-19T23:03:47.456Z,1.03
2017-11-19T23:06:18.323Z,1.40
2017-11-19T23:08:49.208Z,0.90
2017-11-19T23:11:20.065Z,1.20
2017-11-19T23:13:50.947Z,1.37
2017-11-19T23:16:21.783Z,0.90
2017-11-19T23:18:52.632Z,0.80
2017-11-19T23:21:23.832Z,0.97
2017-11-19T23:23:54.690Z,0.98
2017-11-19T23:26:25.535Z,0.87
2017-11-19T23:28:56.409Z,1.07
2017-11-19T23:31:27.264Z,1.10
2017-11-19T23:33:58.158Z,0.93
2017-11-19T23:36:29.012Z,0.70
2017-11-19T23:38:59.861Z,0.83
2017-11-19T23:41:30.714Z,0.90
2017-11-19T23:44:01.585Z,0.73
2017-11-19T23:46:32.443Z,1.17
2017-11-19T23:49:03.293Z,0.83
2017-11-19T23:51:34.129Z,1.30
2017-11-19T23:54:04.999Z,1.00
2017-11-19T23:56:35.876Z,0.97
2017-11-19T23:59:06.721Z,0.87
